createdAt,value
2023-04-13T00:07:03.502Z,7.63
2023-04-13T00:09:34.848Z,5.32
2023-04-13T00:12:04.346Z,6.43
2023-04-13T00:14:40.318Z,7.45
2023-04-13T00:17:13.002Z,7.15
2023-04-13T00:19:43.134Z,7.82
2023-04-13T00:22:13.120Z,7.50
2023-04-13T00:24:48.051Z,7.88
2023-04-13T00:27:17.042Z,7.68
2023-04-13T00:29:46.481Z,7.57
2023-04-13T00:32:15.768Z,7.30
2023-04-13T00:34:48.196Z,6.85
2023-04-13T00:37:18.757Z,7.07
2023-04-13T00:39:53.651Z,5.53
2023-04-13T00:42:24.543Z,6.35
2023-04-13T00:44:54.452Z,6.20
2023-04-13T00:47:27.818Z,6.30
2023-04-13T00:49:58.602Z,7.55
2023-04-13T00:52:45.490Z,7.60
2023-04-13T00:55:21.631Z,6.10
2023-04-13T00:57:53.210Z,6.38
2023-04-13T01:00:32.902Z,7.57
2023-04-13T01:03:02.672Z,8.27
2023-04-13T01:05:34.137Z,9.38
2023-04-13T01:08:12.023Z,7.93
2023-04-13T01:10:45.928Z,6.95
2023-04-13T01:13:24.696Z,5.95
2023-04-13T01:16:02.556Z,7.35
2023-04-13T01:18:38.247Z,7.07
2023-04-13T01:21:10.111Z,5.80
2023-04-13T01:23:46.194Z,8.23
2023-04-13T01:26:17.287Z,6.30
2023-04-13T01:28:49.479Z,6.47
2023-04-13T01:31:19.661Z,6.60
2023-04-13T01:33:54.093Z,6.93
2023-04-13T01:36:25.565Z,6.30
2023-04-13T01:39:05.797Z,7.40
2023-04-13T01:41:36.650Z,7.13
2023-04-13T01:44:08.105Z,8.68
2023-04-13T01:46:38.100Z,7.03
2023-04-13T01:49:13.751Z,8.55
2023-04-13T01:52:06.388Z,8.60
2023-04-13T01:54:39.788Z,7.50
2023-04-13T01:57:10.282Z,6.43
2023-04-13T01:59:41.396Z,7.28
2023-04-13T02:02:18.209Z,6.72
2023-04-13T02:04:47.505Z,7.80
2023-04-13T02:07:19.027Z,7.03
2023-04-13T02:09:52.020Z,6.90
2023-04-13T02:12:21.172Z,6.88
2023-04-13T02:14:52.260Z,9.23
2023-04-13T02:17:21.461Z,7.67
2023-04-13T02:19:50.659Z,7.07
2023-04-13T02:22:19.920Z,6.57
2023-04-13T02:24:52.454Z,6.82
2023-04-13T02:27:23.079Z,7.50
2023-04-13T02:29:53.738Z,7.07
2023-04-13T02:32:22.874Z,7.40
2023-04-13T02:34:53.423Z,7.90
2023-04-13T02:37:23.794Z,8.25
2023-04-13T02:39:53.589Z,7.63
2023-04-13T02:42:24.861Z,8.02
2023-04-13T02:44:56.455Z,8.38
2023-04-13T02:47:26.239Z,7.82
2023-04-13T02:49:56.629Z,7.55
2023-04-13T02:52:31.190Z,9.43
2023-04-13T02:55:05.209Z,6.63
2023-04-13T02:57:46.672Z,9.63
2023-04-13T03:00:18.336Z,8.80
2023-04-13T03:02:56.974Z,8.88
2023-04-13T03:05:31.376Z,7.60
2023-04-13T03:08:01.258Z,8.18
2023-04-13T03:10:38.835Z,9.50
2023-04-13T03:13:09.114Z,7.38
2023-04-13T03:15:45.379Z,7.85
2023-04-13T03:18:19.142Z,8.40
2023-04-13T03:20:48.616Z,10.18
2023-04-13T03:23:19.466Z,10.73
2023-04-13T03:25:56.523Z,9.70
2023-04-13T03:28:26.174Z,6.15
2023-04-13T03:31:01.495Z,7.10
2023-04-13T03:33:33.782Z,6.95
2023-04-13T03:36:05.777Z,4.65
2023-04-13T03:38:40.330Z,6.72
2023-04-13T03:41:10.621Z,8.63
2023-04-13T03:43:40.264Z,8.05
2023-04-13T03:46:14.882Z,5.93
2023-04-13T03:48:44.148Z,6.30
2023-04-13T03:51:17.465Z,6.28
2023-04-13T03:53:50.278Z,7.28
2023-04-13T03:56:24.463Z,5.72
2023-04-13T03:58:54.345Z,4.50
2023-04-13T04:01:28.879Z,5.22
2023-04-13T04:03:58.750Z,6.13
2023-04-13T04:06:31.120Z,5.22
2023-04-13T04:09:12.395Z,4.18
2023-04-13T04:11:49.381Z,3.25
2023-04-13T04:14:26.478Z,6.45
2023-04-13T04:17:03.841Z,5.45
2023-04-13T04:19:32.925Z,5.20
2023-04-13T04:22:04.140Z,4.97
2023-04-13T04:24:37.998Z,7.38
2023-04-13T04:27:07.754Z,7.28
2023-04-13T04:29:37.114Z,4.50
2023-04-13T04:32:37.235Z,4.93
2023-04-13T04:35:14.359Z,3.58
2023-04-13T04:37:51.148Z,6.75
2023-04-13T04:40:22.800Z,4.73
2023-04-13T04:42:53.925Z,4.43
2023-04-13T04:45:36.380Z,5.47
2023-04-13T04:48:08.453Z,6.87
2023-04-13T04:50:38.617Z,7.32
2023-04-13T04:53:13.518Z,7.22
2023-04-13T04:55:43.328Z,5.97
2023-04-13T04:58:20.693Z,6.40
2023-04-13T05:00:57.167Z,6.72
2023-04-13T05:03:27.693Z,7.25
2023-04-13T05:06:08.017Z,6.03
2023-04-13T05:08:37.568Z,8.10
2023-04-13T05:11:07.614Z,6.40
2023-04-13T05:13:37.667Z,5.53
2023-04-13T05:16:19.992Z,4.57
2023-04-13T05:18:50.854Z,6.63
2023-04-13T05:21:39.686Z,5.50
2023-04-13T05:24:11.485Z,5.95
2023-04-13T05:26:43.441Z,5.43
2023-04-13T05:29:15.608Z,7.22
2023-04-13T05:31:47.624Z,5.60
2023-04-13T05:34:18.765Z,7.55
2023-04-13T05:37:06.765Z,6.00
2023-04-13T05:39:36.372Z,4.93
2023-04-13T05:42:05.460Z,6.85
2023-04-13T05:44:39.470Z,8.00
2023-04-13T05:47:08.505Z,5.88
2023-04-13T05:49:39.557Z,5.57
2023-04-13T05:52:10.488Z,3.97
2023-04-13T05:54:45.672Z,7.03
2023-04-13T05:57:15.053Z,5.85
2023-04-13T05:59:48.734Z,6.25
2023-04-13T06:02:25.873Z,6.40
2023-04-13T06:04:56.626Z,7.03
2023-04-13T06:07:26.121Z,7.63
2023-04-13T06:09:55.092Z,7.90
2023-04-13T06:12:24.257Z,6.88
2023-04-13T06:14:54.731Z,5.45
2023-04-13T06:17:24.407Z,6.55
2023-04-13T06:19:54.394Z,5.15
2023-04-13T06:22:24.968Z,5.05
2023-04-13T06:24:54.141Z,5.35
2023-04-13T06:27:24.276Z,5.90
2023-04-13T06:29:53.618Z,5.72
2023-04-13T06:32:22.875Z,6.68
2023-04-13T06:34:52.631Z,5.30
2023-04-13T06:37:22.562Z,6.78
2023-04-13T06:39:55.645Z,6.68
2023-04-13T06:42:25.157Z,5.65
2023-04-13T06:45:14.464Z,6.10
2023-04-13T06:47:46.469Z,5.40
2023-04-13T06:50:17.435Z,4.75
2023-04-13T06:52:48.239Z,5.45
2023-04-13T06:55:19.889Z,6.53
2023-04-13T06:57:49.863Z,6.15
2023-04-13T07:00:29.464Z,5.30
2023-04-13T07:03:00.188Z,5.10
2023-04-13T07:05:30.094Z,7.38
2023-04-13T07:08:06.777Z,6.05
2023-04-13T07:10:40.858Z,6.07
2023-04-13T07:13:19.292Z,6.20
2023-04-13T07:15:49.094Z,6.13
2023-04-13T07:18:19.040Z,5.80
2023-04-13T07:23:22.003Z,4.75
2023-04-13T07:25:53.445Z,4.30
2023-04-13T07:28:27.384Z,5.28
2023-04-13T07:30:59.894Z,4.88
2023-04-13T07:33:29.203Z,5.03
2023-04-13T07:35:58.407Z,4.63
2023-04-13T07:38:31.839Z,5.47
2023-04-13T07:41:03.626Z,6.18
2023-04-13T07:43:37.294Z,5.50
2023-04-13T07:46:11.877Z,6.05
2023-04-13T07:48:58.479Z,7.35
2023-04-13T07:51:32.359Z,6.82
2023-04-13T07:54:01.969Z,6.30
2023-04-13T07:56:36.146Z,5.45
2023-04-13T07:59:09.709Z,4.80
2023-04-13T08:01:41.245Z,5.72
2023-04-13T08:04:11.170Z,5.75
2023-04-13T08:06:42.185Z,3.45
2023-04-13T08:09:11.425Z,4.07
2023-04-13T08:11:42.078Z,5.57
2023-04-13T08:14:12.058Z,7.20
2023-04-13T08:16:44.026Z,4.53
2023-04-13T08:19:13.518Z,6.25
2023-04-13T08:21:49.888Z,5.30
2023-04-13T08:24:20.843Z,6.00
2023-04-13T08:26:52.372Z,6.72
2023-04-13T08:29:25.452Z,7.00
2023-04-13T08:31:56.803Z,6.20
2023-04-13T08:34:27.540Z,7.35
2023-04-13T08:36:57.594Z,7.18
2023-04-13T08:39:30.086Z,5.90
2023-04-13T08:42:01.232Z,7.30
2023-04-13T08:44:35.065Z,6.75
2023-04-13T08:47:05.625Z,7.57
2023-04-13T08:49:37.776Z,8.02
2023-04-13T08:52:27.701Z,6.15
2023-04-13T08:54:58.611Z,6.78
2023-04-13T08:57:33.827Z,5.78
2023-04-13T09:00:11.626Z,4.90
2023-04-13T09:02:56.108Z,5.55
2023-04-13T09:05:34.180Z,5.13
2023-04-13T09:08:08.562Z,5.45
2023-04-13T09:10:42.247Z,5.30
2023-04-13T09:13:13.397Z,4.35
2023-04-13T09:15:47.446Z,5.03
2023-04-13T09:18:51.144Z,3.30
2023-04-13T09:21:21.005Z,5.05
2023-04-13T09:23:56.792Z,5.20
2023-04-13T09:26:26.241Z,5.03
2023-04-13T09:28:59.932Z,6.85
2023-04-13T09:31:30.366Z,4.63
2023-04-13T09:33:59.730Z,5.25
2023-04-13T09:36:30.136Z,3.05
2023-04-13T09:38:59.519Z,2.70
2023-04-13T09:41:32.920Z,4.30
2023-04-13T09:44:04.309Z,5.57
2023-04-13T09:46:34.163Z,4.57
2023-04-13T09:49:05.458Z,4.97
2023-04-13T09:51:37.952Z,5.75
2023-04-13T09:54:08.459Z,6.60
2023-04-13T09:56:48.974Z,5.20
2023-04-13T09:59:22.104Z,5.22
2023-04-13T10:01:51.222Z,4.15
2023-04-13T10:04:22.685Z,3.53
2023-04-13T10:06:52.603Z,5.00
2023-04-13T10:09:21.941Z,5.07
2023-04-13T10:11:52.530Z,4.38
2023-04-13T10:14:30.017Z,4.20
2023-04-13T10:17:13.165Z,5.72
2023-04-13T10:19:44.272Z,5.70
2023-04-13T10:22:15.312Z,5.35
2023-04-13T10:24:45.256Z,3.60
2023-04-13T10:27:17.882Z,3.85
2023-04-13T10:29:50.195Z,4.38
2023-04-13T10:32:23.610Z,5.35
2023-04-13T10:34:53.372Z,5.35
2023-04-13T10:37:24.428Z,5.78
2023-04-13T10:40:05.684Z,6.85
2023-04-13T10:42:51.900Z,5.90
2023-04-13T10:45:26.245Z,6.60
2023-04-13T10:47:58.561Z,25.88
2023-04-13T10:50:28.388Z,14.57
2023-04-13T10:53:02.013Z,5.15
2023-04-13T10:55:31.187Z,5.00
2023-04-13T10:58:00.646Z,4.38
2023-04-13T11:00:45.693Z,4.35
2023-04-13T11:03:17.232Z,5.00
2023-04-13T11:05:47.546Z,5.07
2023-04-13T11:08:21.766Z,3.50
2023-04-13T11:10:55.878Z,4.38
2023-04-13T11:13:27.447Z,5.18
2023-04-13T11:16:04.129Z,5.70
2023-04-13T11:18:33.673Z,5.53
2023-04-13T11:21:05.287Z,5.65
2023-04-13T11:23:36.192Z,5.28
2023-04-13T11:26:05.565Z,5.55
2023-04-13T11:28:43.669Z,4.82
2023-04-13T11:31:14.584Z,4.47
2023-04-13T11:33:44.599Z,3.80
2023-04-13T11:36:14.260Z,3.92
2023-04-13T11:38:43.637Z,5.50
2023-04-13T11:41:17.143Z,5.05
2023-04-13T11:43:52.381Z,5.63
2023-04-13T11:46:25.582Z,5.75
2023-04-13T11:48:55.704Z,5.72
2023-04-13T11:51:26.878Z,4.45
2023-04-13T11:53:56.276Z,4.05
2023-04-13T11:56:26.160Z,4.03
2023-04-13T11:58:55.261Z,6.03
2023-04-13T12:01:28.375Z,4.15
2023-04-13T12:06:44.259Z,5.50
2023-04-13T12:09:17.490Z,5.45
2023-04-13T12:12:12.054Z,4.07
2023-04-13T12:19:51.827Z,4.68
2023-04-13T12:22:23.841Z,4.80
2023-04-13T12:24:56.718Z,4.28
2023-04-13T12:27:27.548Z,6.20
2023-04-13T12:30:04.451Z,5.63
2023-04-13T12:32:41.158Z,5.18
2023-04-13T12:35:12.752Z,6.00
2023-04-13T12:37:42.822Z,5.68
2023-04-13T12:40:12.741Z,4.60
2023-04-13T12:42:42.125Z,4.75
2023-04-13T12:45:11.738Z,3.17
2023-04-13T12:47:42.704Z,5.45
2023-04-13T12:50:12.697Z,4.90
2023-04-13T12:52:44.314Z,3.70
2023-04-13T12:55:13.450Z,5.50
2023-04-13T12:57:42.398Z,6.60
2023-04-13T13:00:12.626Z,6.40
2023-04-13T13:02:44.573Z,6.65
2023-04-13T13:05:15.432Z,5.65
2023-04-13T13:07:44.381Z,6.40
2023-04-13T13:10:28.970Z,7.53
2023-04-13T13:13:00.604Z,6.20
2023-04-13T13:15:30.379Z,5.35
2023-04-13T13:18:02.946Z,6.05
2023-04-13T13:20:32.192Z,4.53
2023-04-13T13:23:01.137Z,5.55
2023-04-13T13:25:30.250Z,5.57
2023-04-13T13:28:13.434Z,5.45
2023-04-13T13:30:43.490Z,6.00
2023-04-13T13:33:15.329Z,6.07
2023-04-13T13:35:44.252Z,5.28
2023-04-13T13:38:14.070Z,5.97
2023-04-13T13:40:42.979Z,5.57
2023-04-13T13:43:13.811Z,6.95
2023-04-13T13:45:43.757Z,5.60
2023-04-13T13:48:14.794Z,4.90
2023-04-13T13:50:56.160Z,6.55
2023-04-13T13:53:27.894Z,3.53
2023-04-13T13:55:58.232Z,6.00
2023-04-13T13:58:27.332Z,4.40
2023-04-13T14:00:59.042Z,3.13
2023-04-13T14:03:53.261Z,3.53
2023-04-13T14:06:44.649Z,3.58
2023-04-13T14:09:15.813Z,2.38
2023-04-13T14:11:50.663Z,1.75
2023-04-13T14:14:22.402Z,6.03
2023-04-13T14:16:51.720Z,3.67
2023-04-13T14:19:22.161Z,4.68
2023-04-13T14:22:00.796Z,5.88
2023-04-13T14:24:30.048Z,4.88
2023-04-13T14:26:59.382Z,5.82
2023-04-13T14:29:29.794Z,3.72
2023-04-13T14:31:59.821Z,4.47
2023-04-13T14:34:29.472Z,4.55
2023-04-13T14:37:00.853Z,4.03
2023-04-13T14:39:31.047Z,3.47
2023-04-13T14:42:00.552Z,4.18
2023-04-13T14:44:31.220Z,4.07
2023-04-13T14:47:02.106Z,4.88
2023-04-13T14:49:31.904Z,3.70
2023-04-13T14:52:02.461Z,4.47
2023-04-13T14:54:33.232Z,5.63
2023-04-13T14:57:04.735Z,4.55
2023-04-13T14:59:33.980Z,4.35
2023-04-13T15:02:03.396Z,4.20
2023-04-13T15:04:35.113Z,3.90
2023-04-13T15:07:05.866Z,4.80
2023-04-13T15:09:35.292Z,5.90
2023-04-13T15:12:04.918Z,3.65
2023-04-13T15:14:34.254Z,5.05
2023-04-13T15:17:04.452Z,3.47
2023-04-13T15:19:36.707Z,4.88
2023-04-13T15:22:07.185Z,4.30
2023-04-13T15:24:36.781Z,4.95
2023-04-13T15:27:06.156Z,5.75
2023-04-13T15:29:35.288Z,2.47
2023-04-13T15:32:04.844Z,2.97
2023-04-13T15:34:34.352Z,3.42
2023-04-13T15:37:03.311Z,3.42
2023-04-13T15:39:33.856Z,3.25
2023-04-13T15:42:02.814Z,3.42
2023-04-13T15:44:31.973Z,4.00
2023-04-13T15:47:02.957Z,4.65
2023-04-13T15:49:33.607Z,4.20
2023-04-13T15:52:02.592Z,2.92
2023-04-13T15:54:31.998Z,4.28
2023-04-13T15:57:03.352Z,3.67
2023-04-13T15:59:34.941Z,3.25
2023-04-13T16:02:04.488Z,2.88
2023-04-13T16:04:33.845Z,2.00
2023-04-13T16:07:12.788Z,2.83
2023-04-13T16:09:45.590Z,3.35
2023-04-13T16:12:17.874Z,3.20
2023-04-13T16:14:46.866Z,4.38
2023-04-13T16:17:16.573Z,4.18
2023-04-13T16:19:49.101Z,3.13
2023-04-13T16:22:18.472Z,3.65
2023-04-13T16:24:48.485Z,3.20
2023-04-13T16:27:19.929Z,3.83
2023-04-13T16:29:50.338Z,4.68
2023-04-13T16:32:19.945Z,3.67
2023-04-13T16:34:50.722Z,3.95
2023-04-13T16:37:19.674Z,3.47
2023-04-13T16:39:48.939Z,3.80
2023-04-13T16:42:19.870Z,3.72
2023-04-13T16:44:49.668Z,3.50
2023-04-13T16:47:22.138Z,4.10
2023-04-13T16:49:51.344Z,5.07
2023-04-13T16:52:20.978Z,3.63
2023-04-13T16:54:50.357Z,3.90
2023-04-13T16:57:21.271Z,2.30
2023-04-13T16:59:53.587Z,4.25
2023-04-13T17:02:31.142Z,3.65
2023-04-13T17:05:01.163Z,4.28
2023-04-13T17:07:31.776Z,4.05
2023-04-13T17:10:01.034Z,4.47
2023-04-13T17:12:32.056Z,2.95
2023-04-13T17:15:02.120Z,5.05
2023-04-13T17:17:31.691Z,4.80
2023-04-13T17:20:01.011Z,3.90
2023-04-13T17:22:30.252Z,3.83
2023-04-13T17:25:00.116Z,3.15
2023-04-13T17:27:32.198Z,3.33
2023-04-13T17:30:01.884Z,4.60
2023-04-13T17:32:31.456Z,2.85
2023-04-13T17:35:01.309Z,3.90
2023-04-13T17:37:33.697Z,3.28
2023-04-13T17:40:05.432Z,5.65
2023-04-13T17:42:36.042Z,3.78
2023-04-13T17:45:07.399Z,3.17
2023-04-13T17:47:37.211Z,3.53
2023-04-13T17:50:07.016Z,4.10
2023-04-13T17:52:36.436Z,3.80
2023-04-13T17:55:06.670Z,3.33
2023-04-13T17:57:36.456Z,3.38
2023-04-13T18:00:08.866Z,10.50
2023-04-13T18:02:39.536Z,6.88
2023-04-13T18:05:15.479Z,4.47
2023-04-13T18:07:45.549Z,4.90
2023-04-13T18:10:15.468Z,3.30
2023-04-13T18:12:46.136Z,4.18
2023-04-13T18:15:16.973Z,2.97
2023-04-13T18:17:46.567Z,2.58
2023-04-13T18:20:17.669Z,2.67
2023-04-13T18:22:48.955Z,1.90
2023-04-13T18:25:18.931Z,3.42
2023-04-13T18:27:50.233Z,4.90
2023-04-13T18:30:21.160Z,4.47
2023-04-13T18:32:52.033Z,2.85
2023-04-13T18:35:21.600Z,6.45
2023-04-13T18:37:51.795Z,4.50
2023-04-13T18:40:23.652Z,4.07
2023-04-13T18:42:52.964Z,5.93
2023-04-13T18:45:23.799Z,6.40
2023-04-13T18:47:53.186Z,6.05
2023-04-13T18:50:22.495Z,5.05
2023-04-13T18:52:51.844Z,5.63
2023-04-13T18:55:21.652Z,3.75
2023-04-13T18:57:52.947Z,5.85
2023-04-13T19:00:24.263Z,4.10
2023-04-13T19:02:54.158Z,5.80
2023-04-13T19:05:23.314Z,4.40
2023-04-13T19:07:57.321Z,5.68
2023-04-13T19:10:26.528Z,8.10
2023-04-13T19:12:56.449Z,7.95
2023-04-13T19:15:27.478Z,6.22
2023-04-13T19:17:57.315Z,6.90
2023-04-13T19:20:26.829Z,8.13
2023-04-13T19:22:55.892Z,8.48
2023-04-13T19:25:25.594Z,9.80
2023-04-13T19:27:55.119Z,10.23
2023-04-13T19:30:24.321Z,7.35
2023-04-13T19:32:55.183Z,9.90
2023-04-13T19:35:26.128Z,8.20
2023-04-13T19:37:56.061Z,9.85
2023-04-13T19:40:27.598Z,4.43
2023-04-13T19:42:59.982Z,5.45
2023-04-13T19:45:31.298Z,4.72
2023-04-13T19:48:03.746Z,5.90
2023-04-13T19:50:33.508Z,6.60
2023-04-13T19:53:02.894Z,5.03
2023-04-13T19:55:32.626Z,5.57
2023-04-13T19:58:03.840Z,6.30
2023-04-13T20:00:33.278Z,6.15
2023-04-13T20:03:17.982Z,7.03
2023-04-13T20:05:50.771Z,9.57
2023-04-13T20:08:21.297Z,9.65
2023-04-13T20:10:50.444Z,9.45
2023-04-13T20:13:19.695Z,7.78
2023-04-13T20:15:48.752Z,8.55
2023-04-13T20:18:20.833Z,9.00
2023-04-13T20:20:51.405Z,10.52
2023-04-13T20:23:20.769Z,10.32
2023-04-13T20:25:50.594Z,11.95
2023-04-13T20:28:21.480Z,10.38
2023-04-13T20:30:51.158Z,8.63
2023-04-13T20:33:20.421Z,10.38
2023-04-13T20:35:50.778Z,8.35
2023-04-13T20:38:20.261Z,8.60
2023-04-13T20:40:50.180Z,9.23
2023-04-13T20:43:20.615Z,8.93
2023-04-13T20:45:50.435Z,4.78
2023-04-13T20:50:53.975Z,8.27
2023-04-13T20:53:23.931Z,6.38
2023-04-13T20:55:53.687Z,4.30
2023-04-13T20:58:23.059Z,5.35
2023-04-13T21:00:53.261Z,4.03
2023-04-13T21:03:24.507Z,4.72
2023-04-13T21:05:55.284Z,4.15
2023-04-13T21:08:26.902Z,4.60
2023-04-13T21:11:03.141Z,5.15
2023-04-13T21:13:33.159Z,5.20
2023-04-13T21:16:02.757Z,3.95
2023-04-13T21:18:32.263Z,4.70
2023-04-13T21:21:03.452Z,5.60
2023-04-13T21:23:33.379Z,5.15
2023-04-13T21:26:03.109Z,3.72
2023-04-13T21:28:32.344Z,5.60
2023-04-13T21:31:01.879Z,5.53
2023-04-13T21:33:31.777Z,4.95
2023-04-13T21:38:36.040Z,4.93
2023-04-13T21:41:06.632Z,4.15
2023-04-13T21:43:36.718Z,4.22
2023-04-13T21:46:08.864Z,2.67
2023-04-13T21:48:38.580Z,3.67
2023-04-13T21:51:08.592Z,4.20
2023-04-13T21:53:42.706Z,4.35
2023-04-13T21:56:11.910Z,2.80
2023-04-13T21:58:41.637Z,3.65
2023-04-13T22:01:11.849Z,3.97
2023-04-13T22:03:43.530Z,3.55
2023-04-13T22:06:13.828Z,4.55
2023-04-13T22:08:45.360Z,3.63
2023-04-13T22:11:16.877Z,4.63
2023-04-13T22:13:47.762Z,3.80
2023-04-13T22:16:17.115Z,3.40
2023-04-13T22:18:46.539Z,5.50
2023-04-13T22:21:16.998Z,5.13
2023-04-13T22:23:47.857Z,4.63
2023-04-13T22:26:16.907Z,4.03
2023-04-13T22:28:46.992Z,4.32
2023-04-13T22:31:16.780Z,5.13
2023-04-13T22:33:46.926Z,3.97
2023-04-13T22:36:19.853Z,3.50
2023-04-13T22:38:51.837Z,4.15
2023-04-13T22:43:49.719Z,4.03
2023-04-13T22:46:18.795Z,4.63
2023-04-13T22:48:48.203Z,3.90
2023-04-13T22:51:17.479Z,4.40
2023-04-13T22:53:46.622Z,12.50
2023-04-13T22:56:17.187Z,4.05
2023-04-13T22:58:47.019Z,5.43
2023-04-13T23:01:16.207Z,6.28
2023-04-13T23:03:45.789Z,4.70
2023-04-13T23:06:14.927Z,3.95
2023-04-13T23:08:43.998Z,5.07
2023-04-13T23:11:12.930Z,4.75
2023-04-13T23:13:43.306Z,5.88
2023-04-13T23:16:13.084Z,6.32
2023-04-13T23:18:42.971Z,5.47
2023-04-13T23:21:12.936Z,5.95
2023-04-13T23:23:41.991Z,5.25
2023-04-13T23:26:11.519Z,5.72
2023-04-13T23:28:41.455Z,6.32
2023-04-13T23:31:12.190Z,6.22
2023-04-13T23:33:42.683Z,6.07
2023-04-13T23:36:12.223Z,6.55
2023-04-13T23:38:41.978Z,6.82
2023-04-13T23:41:11.281Z,7.20
2023-04-13T23:43:40.571Z,6.53
2023-04-13T23:46:10.131Z,5.65
2023-04-13T23:48:45.135Z,5.28
2023-04-13T23:51:15.947Z,6.00
2023-04-13T23:53:48.966Z,3.92
2023-04-13T23:56:18.502Z,5.68
2023-04-13T23:58:47.907Z,6.68
